Terminal Aerodrome Forecast
Issued by NWS

Home | Current Version | Previous Version | Text Only | Print | Product List | Glossary On
Versions: 1 2 3 4 5 6 7 8 9 10 11 12 13 14 15 16 17 18 19 20 21 22
000
FTAK31 PAJN 210800 AAA
TAFAYA
TAF AMD
PAYA 210829Z 2108/2206 08005KT 6SM -SHRA SCT008 BKN020 OVC035
      TEMPO 2108/2112 VRB05G15KT 2SM -SHSN BR OVC015
     FM211500 00000KT P6SM VCSH SCT050 BKN060
     FM212000 24005KT P6SM SCT050 BKN060
      AMD LTD TO CLD VIS AND WIND 2108/2110=

USA.gov is the U.S. government's official web portal to all federal, state and local government web resources and services.